Time;durP1;ratioP1;P1;durP2;ratioP2;P2;SDS_P1;SDS_P2;PMS_P1;PMS_P2;Temp;Humidity;BMP_temperature;BMP_pressure;BME280_temperature;BME280_humidity;BME280_pressure;Samples;Min_cycle;Max_cycle;Signal;HPM_P1;HPM_P2
2022/08/08 00:02:14;;;;;;;3.38;1.77;;;16.70;82.40;;;;;;4954803;29;20027;-57
2022/08/08 00:05:24;;;;;;;3.90;1.55;;;16.50;83.40;;;;;;4954556;29;20127;-56
2022/08/08 00:08:18;;;;;;;3.08;0.90;;;16.30;84.00;;;;;;4940976;29;20023;-57
2022/08/08 00:10:56;;;;;;;0.40;0.40;;;16.30;84.50;;;;;;4955055;28;20020;-57
2022/08/08 00:13:41;;;;;;;0.60;0.60;;;16.40;85.60;;;;;;4956039;28;20027;-56
2022/08/08 00:16:11;;;;;;;2.35;0.60;;;16.50;84.50;;;;;;4955322;29;20081;-60
2022/08/08 00:18:56;;;;;;;1.17;0.73;;;16.70;84.90;;;;;;4955658;28;20081;-58
2022/08/08 00:21:40;;;;;;;0.77;0.60;;;16.80;84.10;;;;;;4955838;28;20157;-60
2022/08/08 00:24:19;;;;;;;3.85;0.70;;;16.60;84.90;;;;;;4954342;29;20050;-60
2022/08/08 00:26:53;;;;;;;0.65;0.52;;;16.70;84.60;;;;;;4954140;29;20027;-60
2022/08/08 00:29:54;;;;;;;0.60;0.50;;;16.70;84.30;;;;;;4954186;29;20477;-60
2022/08/08 00:32:28;;;;;;;1.83;0.82;;;16.70;85.00;;;;;;4943545;29;20043;-61
2022/08/08 00:35:19;;;;;;;1.25;0.52;;;16.70;84.80;;;;;;4955345;28;20039;-61
2022/08/08 00:37:57;;;;;;;4.43;1.13;;;16.70;85.00;;;;;;4954106;29;20070;-60
2022/08/08 00:40:28;;;;;;;0.82;0.63;;;16.50;86.40;;;;;;4955352;28;20035;-58
2022/08/08 00:43:14;;;;;;;2.33;0.90;;;16.20;87.20;;;;;;4955318;28;20037;-56
2022/08/08 00:45:55;;;;;;;1.63;0.70;;;16.00;88.60;;;;;;4955552;28;20060;-59
2022/08/08 00:48:53;;;;;;;3.05;0.68;;;15.90;89.40;;;;;;4955225;28;20028;-58
2022/08/08 00:51:46;;;;;;;2.20;0.77;;;15.80;90.30;;;;;;4954308;29;20039;-58
2022/08/08 00:54:35;;;;;;;0.82;0.47;;;15.80;90.60;;;;;;4955009;29;20024;-58
2022/08/08 00:57:18;;;;;;;0.60;0.57;;;15.90;90.20;;;;;;4955426;28;20106;-59
2022/08/08 01:00:02;;;;;;;0.90;0.60;;;16.00;89.20;;;;;;4953952;29;20062;-57
2022/08/08 01:02:45;;;;;;;0.90;0.68;;;16.00;90.30;;;;;;4955157;28;20027;-57
2022/08/08 01:05:48;;;;;;;1.50;0.63;;;16.00;90.90;;;;;;4954359;29;20027;-54
2022/08/08 01:08:38;;;;;;;0.75;0.70;;;15.80;91.40;;;;;;4954065;29;20028;-55
2022/08/08 01:11:37;;;;;;;1.92;0.63;;;15.70;91.80;;;;;;4955096;28;20079;-57
2022/08/08 01:14:08;;;;;;;1.65;0.60;;;15.40;92.30;;;;;;4955384;28;20023;-57
2022/08/08 01:16:59;;;;;;;0.70;0.63;;;15.30;93.00;;;;;;4954096;29;20099;-54
2022/08/08 01:20:01;;;;;;;1.05;0.60;;;15.20;93.60;;;;;;4953609;29;20051;-57
2022/08/08 01:23:00;;;;;;;2.20;0.80;;;15.20;93.90;;;;;;4954743;28;20027;-54
2022/08/08 01:25:42;;;;;;;1.60;0.70;;;15.10;94.10;;;;;;4958626;28;20115;-55
2022/08/08 01:28:15;;;;;;;1.85;0.70;;;15.00;94.50;;;;;;4957449;29;20027;-57
2022/08/08 01:31:05;;;;;;;1.35;0.70;;;14.90;95.10;;;;;;4957322;29;20082;-58
2022/08/08 01:34:05;;;;;;;0.75;0.60;;;14.90;95.80;;;;;;4957838;29;20027;-55
2022/08/08 01:37:04;;;;;;;1.23;0.88;;;14.90;96.40;;;;;;4957277;29;20031;-55
2022/08/08 01:39:39;;;;;;;2.10;0.85;;;14.90;96.80;;;;;;4957671;29;20035;-56
2022/08/08 01:42:14;;;;;;;3.13;0.82;;;14.80;97.40;;;;;;4957227;29;20034;-57
2022/08/08 01:44:49;;;;;;;1.58;0.75;;;14.80;97.70;;;;;;4957094;28;20042;-58
2022/08/08 01:47:23;;;;;;;1.80;0.80;;;14.80;98.00;;;;;;4957039;29;20070;-54
2022/08/08 01:50:05;;;;;;;3.58;1.20;;;14.70;98.40;;;;;;4958187;28;20027;-57
2022/08/08 01:52:34;;;;;;;0.93;0.70;;;15.00;97.30;;;;;;4957420;29;20035;-57
2022/08/08 01:55:14;;;;;;;0.93;0.70;;;15.00;98.60;;;;;;4958122;28;20082;-55
2022/08/08 01:57:48;;;;;;;1.63;0.50;;;15.20;98.70;;;;;;4958171;28;20078;-58
2022/08/08 02:00:32;;;;;;;2.38;0.60;;;15.30;97.40;;;;;;4956763;29;20082;-55
2022/08/08 02:03:35;;;;;;;1.20;0.70;;;15.50;98.60;;;;;;4956872;29;20027;-57
2022/08/08 02:06:45;;;;;;;0.98;0.63;;;15.50;98.50;;;;;;4956677;29;20034;-56
2022/08/08 02:09:45;;;;;;;0.75;0.70;;;15.40;99.10;;;;;;4939980;29;20024;-55
2022/08/08 02:12:47;;;;;;;2.85;1.10;;;15.10;99.90;;;;;;4916674;29;20040;-57
2022/08/08 02:15:23;;;;;;;1.55;0.85;;;14.80;99.90;;;;;;4956739;29;20039;-57
2022/08/08 02:18:25;;;;;;;1.25;0.80;;;14.60;99.90;;;;;;4956544;29;20063;-51
2022/08/08 02:23:56;;;;;;;2.05;0.75;;;14.90;99.90;;;;;;4957744;29;20047;-55
2022/08/08 02:26:36;;;;;;;1.67;0.73;;;15.00;99.90;;;;;;4956225;29;20031;-57
2022/08/08 02:29:04;;;;;;;1.23;0.60;;;15.10;99.90;;;;;;4956349;29;20054;-56
2022/08/08 02:31:55;;;;;;;3.33;0.80;;;15.00;99.90;;;;;;4957498;28;20043;-54
2022/08/08 02:34:40;;;;;;;1.42;0.85;;;14.90;99.90;;;;;;4956469;28;20078;-56
2022/08/08 02:37:24;;;;;;;2.60;0.90;;;14.70;99.90;;;;;;4957357;28;20082;-54
2022/08/08 02:40:14;;;;;;;1.17;0.55;;;14.70;99.90;;;;;;4956102;29;20034;-57
2022/08/08 02:42:58;;;;;;;3.30;0.70;;;14.80;99.90;;;;;;4957288;28;20019;-54
2022/08/08 02:45:33;;;;;;;1.83;0.80;;;14.80;99.90;;;;;;4957455;28;20114;-56
2022/08/08 02:48:32;;;;;;;0.95;0.60;;;14.80;99.90;;;;;;4955960;29;20019;-58
2022/08/08 02:51:29;;;;;;;0.98;0.80;;;14.80;99.90;;;;;;4957672;28;20470;-58
2022/08/08 02:54:06;;;;;;;0.98;0.75;;;14.80;99.90;;;;;;4955771;29;20027;-52
2022/08/08 02:56:56;;;;;;;0.73;0.70;;;14.90;99.90;;;;;;4957092;28;20042;-58
2022/08/08 02:59:46;;;;;;;1.52;1.00;;;15.00;99.90;;;;;;4955787;29;20031;-58
2022/08/08 03:02:49;;;;;;;2.75;0.90;;;15.00;99.90;;;;;;4956849;29;20069;-60
2022/08/08 03:05:29;;;;;;;2.55;0.73;;;14.80;99.90;;;;;;4956297;28;20035;-58
2022/08/08 03:08:26;;;;;;;1.05;0.77;;;14.70;99.90;;;;;;4955637;29;20023;-60
2022/08/08 03:11:09;;;;;;;0.60;0.60;;;14.50;99.90;;;;;;4955519;29;20019;-58
2022/08/08 03:14:17;;;;;;;0.90;0.80;;;14.50;99.90;;;;;;4955587;29;20086;-60
2022/08/08 03:17:15;;;;;;;2.95;0.90;;;14.40;99.90;;;;;;4956517;28;20081;-59
2022/08/08 03:20:06;;;;;;;0.82;0.80;;;14.40;99.90;;;;;;4955252;28;20035;-60
2022/08/08 03:22:32;;;;;;;0.95;0.85;;;14.50;99.90;;;;;;4955352;29;20054;-60
2022/08/08 03:25:04;;;;;;;3.03;0.70;;;14.40;99.90;;;;;;4955166;29;20027;-60
2022/08/08 03:27:58;;;;;;;3.25;1.30;;;14.50;99.90;;;;;;4956473;29;20118;-59
2022/08/08 03:30:24;;;;;;;1.60;1.08;;;14.40;99.90;;;;;;4956005;29;20035;-61
2022/08/08 03:35:38;;;;;;;0.70;0.70;;;14.20;99.90;;;;;;4957005;29;20058;-57
2022/08/08 03:38:05;;;;;;;1.30;0.75;;;14.20;99.90;;;;;;4955365;29;20126;-57
2022/08/08 03:40:31;;;;;;;0.60;0.60;;;14.30;99.90;;;;;;4954894;29;20106;-59
2022/08/08 03:42:57;;;;;;;1.13;0.90;;;14.40;99.90;;;;;;4955265;29;20050;-58
2022/08/08 03:45:25;;;;;;;1.80;1.00;;;14.30;99.90;;;;;;4954662;28;20083;-55
2022/08/08 03:48:06;;;;;;;2.42;0.73;;;14.10;99.90;;;;;;4955964;28;20030;-54
2022/08/08 03:50:33;;;;;;;1.02;0.90;;;14.00;99.90;;;;;;4955973;28;20104;-56
2022/08/08 03:53:08;;;;;;;2.45;0.93;;;14.00;99.90;;;;;;4954860;29;20023;-57
2022/08/08 03:55:37;;;;;;;1.13;0.70;;;14.10;99.90;;;;;;4955902;29;20039;-59
2022/08/08 03:58:03;;;;;;;1.10;0.70;;;14.10;99.90;;;;;;4954897;29;20051;-56
2022/08/08 04:00:29;;;;;;;2.30;0.70;;;14.20;99.90;;;;;;4956044;28;20065;-55
2022/08/08 04:03:07;;;;;;;4.40;0.73;;;14.20;99.90;;;;;;4954661;28;20031;-57
2022/08/08 04:05:36;;;;;;;3.20;0.90;;;14.20;99.90;;;;;;4954596;29;20023;-56
2022/08/08 04:08:05;;;;;;;2.53;1.55;;;14.10;99.90;;;;;;4956033;28;20149;-58
2022/08/08 04:10:31;;;;;;;1.63;0.70;;;13.90;99.90;;;;;;4955656;28;20035;-56
2022/08/08 04:12:57;;;;;;;1.05;0.80;;;13.90;99.90;;;;;;4954465;29;20023;-56
2022/08/08 04:15:23;;;;;;;0.98;0.88;;;13.80;99.90;;;;;;4954672;29;20027;-56
2022/08/08 04:17:49;;;;;;;2.38;0.93;;;13.90;99.90;;;;;;4954607;28;20030;-54
2022/08/08 04:20:14;;;;;;;2.25;0.85;;;13.90;99.90;;;;;;4955383;28;20038;-55
2022/08/08 04:22:41;;;;;;;0.98;0.77;;;14.10;99.90;;;;;;4954675;29;20023;-56
2022/08/08 04:25:08;;;;;;;1.40;1.15;;;14.20;99.90;;;;;;4955362;28;20027;-57
2022/08/08 04:27:34;;;;;;;2.25;0.80;;;14.30;99.90;;;;;;4954127;29;20027;-55
2022/08/08 04:30:05;;;;;;;2.10;0.65;;;14.60;99.90;;;;;;4955294;28;20035;-56
2022/08/08 04:32:31;;;;;;;0.70;0.70;;;14.90;99.90;;;;;;4955699;28;20030;-59
2022/08/08 04:34:56;;;;;;;1.33;0.70;;;15.20;99.90;;;;;;4955354;28;20023;-58
2022/08/08 04:37:22;;;;;;;1.45;0.80;;;15.60;99.90;;;;;;4954160;29;20033;-58
2022/08/08 04:39:48;;;;;;;3.65;1.05;;;15.80;99.90;;;;;;4953885;29;20444;-58
2022/08/08 04:42:14;;;;;;;3.72;1.38;;;16.00;99.90;;;;;;4955321;28;20032;-56
2022/08/08 04:44:39;;;;;;;1.90;0.80;;;16.10;99.90;;;;;;4955092;28;20098;-56
2022/08/08 04:47:05;;;;;;;7.72;0.95;;;16.30;99.90;;;;;;4953984;29;20019;-57
2022/08/08 04:49:31;;;;;;;2.65;0.80;;;16.60;99.90;;;;;;4953892;29;20023;-59
2022/08/08 04:51:57;;;;;;;1.65;0.90;;;16.90;99.90;;;;;;4955063;28;20537;-57
2022/08/08 04:54:22;;;;;;;1.50;0.95;;;17.20;99.90;;;;;;4954320;29;20027;-58
2022/08/08 04:56:49;;;;;;;3.10;1.10;;;17.60;99.90;;;;;;4955451;28;20051;-57
2022/08/08 04:59:14;;;;;;;2.25;1.20;;;18.00;99.90;;;;;;4958064;29;20078;-58
2022/08/08 05:01:40;;;;;;;2.28;0.80;;;18.30;99.90;;;;;;4958691;29;20392;-59
2022/08/08 05:04:06;;;;;;;1.95;0.90;;;18.50;99.90;;;;;;4959060;28;20474;-59
2022/08/08 05:06:31;;;;;;;3.40;1.05;;;18.60;99.90;;;;;;4958951;28;20028;-57
2022/08/08 05:08:57;;;;;;;4.75;1.20;;;18.80;99.90;;;;;;4957618;29;20036;-59
2022/08/08 05:11:23;;;;;;;4.10;0.70;;;19.10;99.90;;;;;;4958466;29;20027;-57
2022/08/08 05:13:48;;;;;;;1.05;0.68;;;19.40;99.90;;;;;;4957656;29;20024;-59
2022/08/08 05:16:14;;;;;;;1.75;0.70;;;19.90;99.90;;;;;;4957589;28;20023;-56
2022/08/08 05:18:40;;;;;;;2.38;0.90;;;20.40;99.40;;;;;;4958691;28;20035;-61
2022/08/08 05:21:09;;;;;;;2.55;0.68;;;20.80;98.50;;;;;;4958656;28;20027;-61
2022/08/08 05:23:34;;;;;;;1.67;0.82;;;21.20;97.50;;;;;;4957472;29;20542;-61
2022/08/08 05:26:01;;;;;;;9.85;1.48;;;21.30;97.20;;;;;;4958537;28;20170;-61
2022/08/08 05:28:26;;;;;;;1.27;1.17;;;21.50;96.90;;;;;;4957281;29;20487;-61
2022/08/08 05:30:52;;;;;;;1.17;0.65;;;21.70;96.20;;;;;;4958475;28;20027;-60
2022/08/08 05:33:18;;;;;;;2.10;0.77;;;22.20;95.60;;;;;;4957381;29;20023;-59
2022/08/08 05:35:45;;;;;;;1.85;1.10;;;22.70;94.30;;;;;;4957257;29;20034;-61
2022/08/08 05:38:16;;;;;;;0.70;0.70;;;23.00;93.60;;;;;;4958702;28;20031;-61
2022/08/08 05:40:46;;;;;;;1.67;1.30;;;23.50;92.60;;;;;;4957164;29;20098;-61
2022/08/08 05:43:22;;;;;;;1.58;0.90;;;24.00;91.30;;;;;;4957136;29;20114;-61
2022/08/08 05:45:48;;;;;;;1.65;1.00;;;24.50;90.40;;;;;;4958399;28;20019;-62
2022/08/08 05:48:15;;;;;;;1.33;1.00;;;24.80;89.40;;;;;;4956989;29;20027;-62
2022/08/08 05:50:40;;;;;;;3.53;1.15;;;25.00;87.60;;;;;;4957740;28;20027;-62
2022/08/08 05:53:06;;;;;;;1.40;1.13;;;25.40;86.50;;;;;;4956923;29;20030;-62
2022/08/08 05:55:34;;;;;;;1.77;0.77;;;25.60;85.50;;;;;;4958770;28;20051;-62
2022/08/08 05:58:02;;;;;;;1.95;1.02;;;26.10;84.00;;;;;;4957781;29;20085;-63
2022/08/08 06:00:31;;;;;;;1.27;0.80;;;26.70;81.80;;;;;;4956871;29;20031;-63
2022/08/08 06:03:11;;;;;;;1.25;0.98;;;27.00;80.10;;;;;;4958079;28;20435;-62
2022/08/08 06:05:49;;;;;;;2.88;1.02;;;27.40;79.10;;;;;;4957508;29;20030;-64
2022/08/08 06:08:21;;;;;;;2.90;1.50;;;27.50;78.50;;;;;;4958069;28;20023;-63
2022/08/08 06:10:47;;;;;;;5.38;1.48;;;28.00;75.80;;;;;;4958014;28;20019;-63
2022/08/08 06:13:14;;;;;;;1.80;1.00;;;28.30;73.70;;;;;;4956694;28;20030;-63
2022/08/08 06:15:42;;;;;;;1.95;1.17;;;28.70;73.30;;;;;;4957873;28;20114;-63
2022/08/08 06:18:08;;;;;;;2.20;0.98;;;28.90;70.70;;;;;;4958013;28;20035;-63
2022/08/08 06:20:35;;;;;;;4.43;0.95;;;29.20;69.00;;;;;;4956566;29;20027;-63
2022/08/08 06:23:01;;;;;;;2.28;0.90;;;29.50;70.00;;;;;;4956478;29;20035;-63
2022/08/08 06:25:28;;;;;;;5.40;1.23;;;29.90;70.20;;;;;;4957712;28;20035;-62
2022/08/08 06:27:57;;;;;;;2.47;0.90;;;30.30;66.50;;;;;;4956479;29;20054;-63
2022/08/08 06:30:23;;;;;;;2.53;1.10;;;30.40;65.20;;;;;;4956210;29;20023;-63
2022/08/08 06:32:56;;;;;;;1.52;0.98;;;30.50;62.50;;;;;;4957648;28;20030;-63
2022/08/08 06:35:22;;;;;;;2.00;1.27;;;30.70;63.90;;;;;;4956369;29;20031;-63
2022/08/08 06:37:51;;;;;;;0.80;0.80;;;30.80;62.60;;;;;;4956808;29;20034;-63
2022/08/08 06:40:18;;;;;;;3.10;0.82;;;31.10;63.90;;;;;;4956384;29;20118;-63
2022/08/08 06:42:58;;;;;;;4.30;0.80;;;31.30;62.50;;;;;;4956224;29;20028;-63
2022/08/08 06:46:03;;;;;;;1.42;1.00;;;31.40;59.70;;;;;;4956636;29;20031;-65
2022/08/08 06:48:29;;;;;;;0.75;0.70;;;31.40;58.10;;;;;;4956619;29;20479;-56
2022/08/08 06:50:56;;;;;;;2.65;1.08;;;30.10;59.10;;;;;;4955947;29;20039;-61
2022/08/08 06:53:24;;;;;;;1.38;1.00;;;30.60;60.00;;;;;;4957423;28;20490;-61
2022/08/08 06:55:49;;;;;;;3.92;0.98;;;31.20;58.70;;;;;;4957384;28;20110;-61
2022/08/08 06:58:15;;;;;;;2.95;1.15;;;31.50;60.50;;;;;;4956989;28;20106;-61
2022/08/08 07:00:44;;;;;;;4.45;1.20;;;32.00;58.70;;;;;;4956978;28;20071;-61
2022/08/08 07:03:17;;;;;;;4.53;1.40;;;32.40;56.60;;;;;;4955787;29;20130;-64
2022/08/08 07:05:48;;;;;;;1.00;0.80;;;32.50;58.70;;;;;;4955728;29;20431;-63
2022/08/08 07:08:19;;;;;;;2.15;0.90;;;33.40;56.90;;;;;;4957114;28;20057;-61
2022/08/08 07:10:49;;;;;;;0.95;0.80;;;33.30;55.90;;;;;;4955509;29;20034;-63
2022/08/08 07:13:19;;;;;;;;;;;34.00;56.00;;;;;;4957236;28;20019;-62
2022/08/08 07:15:44;;;;;;;1.98;0.90;;;34.60;52.90;;;;;;4957069;28;20021;-62
2022/08/08 07:18:10;;;;;;;4.43;1.30;;;34.00;54.20;;;;;;4955499;29;20461;-61
2022/08/08 07:20:41;;;;;;;4.90;1.13;;;33.80;53.00;;;;;;4954844;28;20066;-63
2022/08/08 07:23:07;;;;;;;7.43;1.00;;;32.80;53.60;;;;;;4957021;28;20395;-63
2022/08/08 07:25:38;;;;;;;5.43;1.20;;;33.30;55.60;;;;;;4956068;29;20035;-63
2022/08/08 07:28:21;;;;;;;3.53;1.00;;;34.40;54.60;;;;;;4955283;29;20048;-63
2022/08/08 07:30:47;;;;;;;3.25;1.00;;;35.20;52.40;;;;;;4956029;29;20023;-63
2022/08/08 07:33:14;;;;;;;2.75;1.00;;;36.00;51.30;;;;;;4955206;28;20117;-63
2022/08/08 07:35:40;;;;;;;3.05;1.13;;;36.30;52.40;;;;;;4955100;29;20035;-63
2022/08/08 07:38:09;;;;;;;2.30;1.13;;;36.50;51.70;;;;;;4955427;28;20209;-62
2022/08/08 07:40:35;;;;;;;2.53;1.00;;;36.30;50.90;;;;;;4956260;28;20474;-64
2022/08/08 07:43:02;;;;;;;8.65;1.10;;;36.80;50.50;;;;;;4956255;28;20031;-63
2022/08/08 07:45:28;;;;;;;3.50;0.88;;;36.90;48.90;;;;;;4956560;28;20066;-62
2022/08/08 07:47:57;;;;;;;4.57;1.45;;;37.30;49.40;;;;;;4954886;29;20051;-63
2022/08/08 07:50:23;;;;;;;4.68;1.08;;;37.40;47.90;;;;;;4954767;29;20034;-62
2022/08/08 07:52:58;;;;;;;2.35;1.08;;;37.60;48.70;;;;;;4954827;29;20023;-63
2022/08/08 07:55:25;;;;;;;2.88;0.95;;;38.30;47.60;;;;;;4954829;29;20038;-64
2022/08/08 07:58:08;;;;;;;3.33;1.30;;;39.10;46.70;;;;;;4954675;29;20027;-63
2022/08/08 08:01:00;;;;;;;5.25;1.25;;;39.60;45.60;;;;;;4954681;29;20506;-64
2022/08/08 08:03:32;;;;;;;3.20;1.00;;;39.80;44.70;;;;;;4955949;28;20031;-63
2022/08/08 08:05:59;;;;;;;0.80;0.80;;;40.30;44.40;;;;;;4954650;29;20027;-63
2022/08/08 08:08:31;;;;;;;3.67;1.15;;;39.90;43.10;;;;;;4955380;29;20032;-63
2022/08/08 08:10:57;;;;;;;3.08;1.05;;;38.90;46.20;;;;;;4955752;28;20023;-62
2022/08/08 08:13:46;;;;;;;1.48;1.20;;;39.60;45.30;;;;;;4954486;29;20474;-63
2022/08/08 08:16:21;;;;;;;5.25;1.40;;;40.00;43.10;;;;;;4955768;28;20047;-61
2022/08/08 08:19:08;;;;;;;5.05;1.17;;;39.50;45.60;;;;;;4955813;28;20023;-62
2022/08/08 08:21:40;;;;;;;1.10;1.00;;;40.20;43.70;;;;;;4951097;29;20058;-63
2022/08/08 08:24:06;;;;;;;1.35;1.15;;;40.30;43.70;;;;;;4955661;28;20027;-59
2022/08/08 08:26:32;;;;;;;2.85;1.10;;;41.10;42.30;;;;;;4955496;28;20031;-57
2022/08/08 08:28:57;;;;;;;5.35;1.33;;;41.40;43.00;;;;;;4954186;29;20031;-63
2022/08/08 08:31:24;;;;;;;1.73;1.23;;;41.60;41.00;;;;;;4955197;28;20102;-60
2022/08/08 08:33:49;;;;;;;2.65;1.10;;;40.40;42.00;;;;;;4955072;28;20036;-59
2022/08/08 08:36:17;;;;;;;3.25;1.02;;;38.20;42.80;;;;;;4955674;28;20027;-60
2022/08/08 08:38:43;;;;;;;3.40;1.30;;;38.30;43.40;;;;;;4954133;29;20063;-55
2022/08/08 08:41:11;;;;;;;3.65;1.40;;;39.20;42.90;;;;;;4955325;28;20031;-58
2022/08/08 08:43:38;;;;;;;5.50;1.42;;;40.30;43.30;;;;;;4954442;29;20360;-59
2022/08/08 08:46:07;;;;;;;6.10;1.15;;;39.70;42.50;;;;;;4953954;28;20034;-61
2022/08/08 08:48:33;;;;;;;1.67;0.90;;;38.70;42.60;;;;;;4954843;29;20019;-64
2022/08/08 08:51:00;;;;;;;4.20;1.25;;;38.30;44.00;;;;;;4954063;29;20035;-58
2022/08/08 08:53:26;;;;;;;1.98;1.10;;;39.50;43.40;;;;;;4954134;28;20053;-62
2022/08/08 08:55:54;;;;;;;2.30;1.10;;;39.80;42.80;;;;;;4953906;29;20062;-58
2022/08/08 08:58:41;;;;;;;4.28;1.17;;;38.30;41.40;;;;;;4953960;29;20110;-61
2022/08/08 09:01:11;;;;;;;5.60;1.02;;;37.90;43.10;;;;;;4954767;29;20019;-56
2022/08/08 09:03:39;;;;;;;3.38;1.58;;;38.00;43.10;;;;;;4954970;29;20032;-57
2022/08/08 09:06:08;;;;;;;2.30;1.30;;;38.80;43.00;;;;;;4955041;28;20031;-58
2022/08/08 09:08:38;;;;;;;1.15;0.82;;;38.70;41.30;;;;;;4954090;29;20099;-61
2022/08/08 09:11:08;;;;;;;5.07;1.20;;;39.00;43.10;;;;;;4954097;29;20442;-60
2022/08/08 09:13:35;;;;;;;2.95;1.08;;;39.60;42.10;;;;;;4953933;28;20271;-58
2022/08/08 09:16:02;;;;;;;3.75;1.10;;;41.00;41.50;;;;;;4955255;28;20102;-59
2022/08/08 09:18:29;;;;;;;2.22;1.20;;;42.10;40.10;;;;;;4953990;29;20122;-61
2022/08/08 09:20:57;;;;;;;8.82;1.10;;;40.80;39.60;;;;;;4953688;29;20031;-60
2022/08/08 09:23:23;;;;;;;4.68;1.10;;;38.20;40.90;;;;;;4954325;29;20031;-60
2022/08/08 09:26:01;;;;;;;2.75;1.20;;;38.40;41.60;;;;;;4953859;28;20118;-60
2022/08/08 09:28:28;;;;;;;2.08;1.10;;;39.70;40.00;;;;;;4955247;28;20023;-56
2022/08/08 09:31:01;;;;;;;2.58;1.17;;;39.60;40.00;;;;;;4953732;28;20115;-57
2022/08/08 09:33:30;;;;;;;1.08;0.95;;;40.70;38.80;;;;;;4955025;28;20073;-58
2022/08/08 09:35:56;;;;;;;5.43;1.20;;;42.00;38.90;;;;;;4953980;29;20122;-60
2022/08/08 09:38:46;;;;;;;2.92;0.80;;;40.60;38.80;;;;;;4953598;29;20039;-54
2022/08/08 09:41:16;;;;;;;1.10;1.00;;;40.20;38.60;;;;;;4955136;28;20023;-62
2022/08/08 09:43:49;;;;;;;2.05;1.08;;;41.10;38.70;;;;;;4956175;28;20486;-61
2022/08/08 09:46:16;;;;;;;4.50;1.20;;;42.70;37.70;;;;;;4958473;28;20027;-62
2022/08/08 09:48:44;;;;;;;1.73;1.00;;;40.30;36.90;;;;;;4958440;28;20023;-56
2022/08/08 09:51:14;;;;;;;4.68;1.10;;;39.00;40.20;;;;;;4958495;28;20035;-60
2022/08/08 09:53:49;;;;;;;2.28;1.00;;;39.40;39.20;;;;;;4958288;28;20513;-57
2022/08/08 09:56:16;;;;;;;2.22;1.10;;;38.70;39.80;;;;;;4957057;29;20031;-62
2022/08/08 09:58:52;;;;;;;1.48;0.80;;;40.10;39.70;;;;;;4957149;29;20024;-59
2022/08/08 10:01:21;;;;;;;1.20;1.10;;;40.90;38.90;;;;;;4956921;29;20386;-59
2022/08/08 10:03:49;;;;;;;3.20;1.08;;;41.90;37.70;;;;;;4956941;29;20038;-59
2022/08/08 10:06:16;;;;;;;2.58;1.00;;;41.80;36.30;;;;;;4956696;29;20023;-58
2022/08/08 10:08:46;;;;;;;1.15;0.75;;;39.70;37.90;;;;;;4958028;28;20082;-59
2022/08/08 10:11:22;;;;;;;1.23;0.80;;;40.00;38.50;;;;;;4958112;28;20048;-57
2022/08/08 10:13:55;;;;;;;0.88;0.80;;;39.40;38.10;;;;;;4957563;29;20468;-63
2022/08/08 10:16:22;;;;;;;2.15;0.82;;;39.90;37.10;;;;;;4957962;28;20038;-59
2022/08/08 10:18:49;;;;;;;1.02;0.70;;;38.80;37.40;;;;;;4957759;28;20031;-57
2022/08/08 10:21:20;;;;;;;2.30;1.00;;;36.50;38.20;;;;;;4956957;29;20027;-59
2022/08/08 10:23:47;;;;;;;3.05;0.90;;;37.10;40.60;;;;;;4957804;28;20031;-56
2022/08/08 10:26:19;;;;;;;0.85;0.57;;;36.30;38.60;;;;;;4956625;29;20082;-54
2022/08/08 10:28:55;;;;;;;8.70;0.80;;;34.30;41.40;;;;;;4956566;29;20027;-58
2022/08/08 10:34:14;;;;;;;2.88;0.90;;;33.30;41.90;;;;;;4958119;29;20087;-56
2022/08/08 10:36:41;;;;;;;1.00;0.60;;;34.30;40.90;;;;;;4957443;28;20027;-53
2022/08/08 10:39:09;;;;;;;1.17;0.60;;;33.20;40.90;;;;;;4957446;28;20035;-54
2022/08/08 10:41:36;;;;;;;2.00;0.60;;;32.60;42.00;;;;;;4957406;28;20042;-57
2022/08/08 10:44:02;;;;;;;1.17;0.70;;;32.50;42.80;;;;;;4957362;28;20035;-51
2022/08/08 10:46:30;;;;;;;1.02;0.70;;;32.00;42.40;;;;;;4956062;29;20058;-51
2022/08/08 10:48:57;;;;;;;1.10;0.60;;;31.30;42.70;;;;;;4957201;28;20082;-53
2022/08/08 10:51:23;;;;;;;0.73;0.57;;;31.10;42.50;;;;;;4956127;29;20038;-55
2022/08/08 10:53:51;;;;;;;8.68;1.05;;;31.00;44.70;;;;;;4956275;29;20023;-61
2022/08/08 10:56:17;;;;;;;1.63;0.68;;;31.40;44.80;;;;;;4955019;28;20023;-56
2022/08/08 10:58:43;;;;;;;3.13;0.63;;;31.70;43.50;;;;;;4955811;29;20023;-54
2022/08/08 11:01:10;;;;;;;2.90;0.70;;;31.00;45.00;;;;;;4956931;29;20020;-55
2022/08/08 11:03:44;;;;;;;0.85;0.55;;;30.50;43.90;;;;;;4955769;29;20093;-57
2022/08/08 11:06:10;;;;;;;0.60;0.60;;;30.00;45.20;;;;;;4957014;28;20053;-59
2022/08/08 11:08:38;;;;;;;2.03;0.43;;;29.80;45.00;;;;;;4955644;29;20027;-55
2022/08/08 11:11:07;;;;;;;2.08;0.63;;;29.40;44.80;;;;;;4955594;29;20019;-59
2022/08/08 11:13:40;;;;;;;0.40;0.38;;;28.90;45.10;;;;;;4955592;29;20031;-56
2022/08/08 11:16:07;;;;;;;0.68;0.52;;;29.00;45.50;;;;;;4956327;29;20035;-52
2022/08/08 11:18:36;;;;;;;1.48;0.45;;;28.70;46.10;;;;;;4955467;28;20035;-53
2022/08/08 11:21:04;;;;;;;2.03;0.57;;;28.60;47.40;;;;;;4955427;29;20035;-54
2022/08/08 11:23:33;;;;;;;0.73;0.73;;;28.60;46.40;;;;;;4955422;29;20482;-54
2022/08/08 11:26:04;;;;;;;2.50;0.77;;;28.60;46.60;;;;;;4955283;29;20122;-51
2022/08/08 11:28:36;;;;;;;3.05;0.50;;;28.30;46.90;;;;;;4954955;29;20031;-52
2022/08/08 11:31:03;;;;;;;0.50;0.50;;;27.90;46.90;;;;;;4955983;29;20029;-52
2022/08/08 11:33:32;;;;;;;2.95;0.47;;;27.90;47.40;;;;;;4956868;28;20023;-51
2022/08/08 11:35:58;;;;;;;0.98;0.57;;;27.70;47.00;;;;;;4955166;29;20094;-56
2022/08/08 11:38:25;;;;;;;0.73;0.60;;;27.60;47.50;;;;;;4955232;29;20109;-60
2022/08/08 11:40:52;;;;;;;2.50;0.52;;;27.80;48.20;;;;;;4956318;28;20050;-56
2022/08/08 11:43:18;;;;;;;1.65;0.40;;;28.10;46.40;;;;;;4955000;29;20036;-53
2022/08/08 11:45:49;;;;;;;3.65;1.08;;;27.80;47.30;;;;;;4955315;29;20047;-55
2022/08/08 11:48:16;;;;;;;2.83;0.50;;;27.60;47.10;;;;;;4956137;28;20051;-55
2022/08/08 11:50:43;;;;;;;0.77;0.47;;;27.40;47.60;;;;;;4954942;29;20031;-56
2022/08/08 11:53:09;;;;;;;0.82;0.60;;;27.40;48.20;;;;;;4954817;29;20028;-52
2022/08/08 11:55:49;;;;;;;2.63;0.70;;;27.50;48.00;;;;;;4955181;29;20067;-58
2022/08/08 11:58:14;;;;;;;0.70;0.50;;;27.60;48.40;;;;;;4956006;28;20038;-57
2022/08/08 12:00:49;;;;;;;0.50;0.50;;;27.80;48.40;;;;;;4955092;29;20023;-57
2022/08/08 12:03:29;;;;;;;1.10;0.47;;;27.80;47.60;;;;;;4955102;29;20086;-57
2022/08/08 12:05:55;;;;;;;2.38;0.45;;;28.00;47.40;;;;;;4954921;28;20027;-57
2022/08/08 12:08:35;;;;;;;1.58;0.50;;;28.00;46.20;;;;;;4955771;28;20034;-54
2022/08/08 12:11:03;;;;;;;0.93;0.60;;;27.80;46.70;;;;;;4955953;28;20047;-56
2022/08/08 12:13:30;;;;;;;2.08;0.50;;;27.80;48.20;;;;;;4955407;29;20023;-53
2022/08/08 12:16:12;;;;;;;0.68;0.60;;;27.70;47.10;;;;;;4954431;28;20023;-58
2022/08/08 12:18:50;;;;;;;0.95;0.52;;;27.70;46.90;;;;;;4955404;29;20032;-57
2022/08/08 12:21:26;;;;;;;1.20;0.57;;;27.80;47.50;;;;;;4955787;28;20128;-54
2022/08/08 12:24:13;;;;;;;3.72;0.60;;;27.80;47.30;;;;;;4955429;29;20038;-55
2022/08/08 12:26:43;;;;;;;1.98;0.68;;;27.80;48.00;;;;;;4954762;29;20027;-54
2022/08/08 12:29:33;;;;;;;4.27;0.50;;;27.90;47.40;;;;;;4954324;29;20027;-55
2022/08/08 12:32:07;;;;;;;1.35;0.80;;;28.00;49.20;;;;;;4955180;29;20023;-51
2022/08/08 12:34:44;;;;;;;0.47;0.43;;;28.20;48.60;;;;;;4954273;28;20062;-49
2022/08/08 12:37:18;;;;;;;0.57;0.47;;;28.30;47.90;;;;;;4954254;28;20027;-49
2022/08/08 12:39:44;;;;;;;3.55;0.73;;;28.40;48.20;;;;;;4955592;28;20038;-50
2022/08/08 12:42:09;;;;;;;3.22;0.70;;;28.40;47.30;;;;;;4953960;29;20395;-48
2022/08/08 12:44:35;;;;;;;2.45;0.70;;;28.50;47.80;;;;;;4954212;29;20034;-50
2022/08/08 12:47:02;;;;;;;1.75;0.60;;;28.60;48.10;;;;;;4954354;29;20122;-49
2022/08/08 12:49:30;;;;;;;2.05;1.38;;;28.50;48.40;;;;;;4953987;29;20032;-48
2022/08/08 12:51:57;;;;;;;1.00;0.70;;;28.40;47.40;;;;;;4953906;29;20039;-49
2022/08/08 12:54:31;;;;;;;1.30;0.80;;;28.10;48.00;;;;;;4955344;28;20106;-48
2022/08/08 12:56:58;;;;;;;0.75;0.75;;;28.10;49.00;;;;;;4954058;29;20074;-49
2022/08/08 12:59:25;;;;;;;0.82;0.57;;;28.20;48.50;;;;;;4953851;29;20117;-49
2022/08/08 13:01:57;;;;;;;2.33;0.70;;;28.30;48.60;;;;;;4955399;28;20027;-48
2022/08/08 13:04:26;;;;;;;3.55;0.70;;;28.30;48.40;;;;;;4954047;29;20027;-51
2022/08/08 13:07:00;;;;;;;3.45;0.55;;;28.10;47.90;;;;;;4953948;29;20063;-48
2022/08/08 13:09:51;;;;;;;4.13;0.75;;;28.00;47.80;;;;;;4953912;29;20051;-48
2022/08/08 13:12:23;;;;;;;1.33;0.70;;;27.90;48.60;;;;;;4955227;29;20470;-50
2022/08/08 13:14:50;;;;;;;2.03;0.50;;;27.90;49.20;;;;;;4953918;29;20055;-47
2022/08/08 13:17:21;;;;;;;1.65;0.50;;;28.10;48.50;;;;;;4953896;28;20110;-50
2022/08/08 13:19:47;;;;;;;1.08;0.60;;;28.10;49.10;;;;;;4958239;28;20034;-48
2022/08/08 13:22:17;;;;;;;7.63;0.90;;;28.10;48.30;;;;;;4958871;28;20059;-48
2022/08/08 13:24:43;;;;;;;2.97;0.80;;;28.10;48.30;;;;;;4957863;29;20486;-49
2022/08/08 13:27:11;;;;;;;1.88;0.65;;;28.10;48.60;;;;;;4957519;28;20085;-48
2022/08/08 13:29:47;;;;;;;0.95;0.82;;;28.00;48.70;;;;;;4958715;28;20030;-51